sensor_id;sensor_type;location;lat;lon;timestamp;temperature;humidity
67870;DHT22;54673;52.262;6.830;2022-11-20T00:00:50;16.00;45.90
67870;DHT22;54673;52.262;6.830;2022-11-20T00:03:16;16.00;46.00
67870;DHT22;54673;52.262;6.830;2022-11-20T00:05:43;16.70;46.40
67870;DHT22;54673;52.262;6.830;2022-11-20T00:08:08;15.90;46.00
67870;DHT22;54673;52.262;6.830;2022-11-20T00:10:36;15.90;46.00
67870;DHT22;54673;52.262;6.830;2022-11-20T00:13:03;15.90;46.40
67870;DHT22;54673;52.262;6.830;2022-11-20T00:15:29;15.90;46.20
67870;DHT22;54673;52.262;6.830;2022-11-20T00:17:54;16.10;46.10
67870;DHT22;54673;52.262;6.830;2022-11-20T00:20:20;15.70;46.00
67870;DHT22;54673;52.262;6.830;2022-11-20T00:22:45;15.70;46.00
67870;DHT22;54673;52.262;6.830;2022-11-20T00:25:11;16.00;46.10
67870;DHT22;54673;52.262;6.830;2022-11-20T00:27:36;16.10;46.30
67870;DHT22;54673;52.262;6.830;2022-11-20T00:30:03;15.70;46.10
67870;DHT22;54673;52.262;6.830;2022-11-20T00:32:29;15.80;46.20
67870;DHT22;54673;52.262;6.830;2022-11-20T00:34:55;15.70;46.30
67870;DHT22;54673;52.262;6.830;2022-11-20T00:37:20;15.70;46.10
67870;DHT22;54673;52.262;6.830;2022-11-20T00:39:46;16.00;46.30
67870;DHT22;54673;52.262;6.830;2022-11-20T00:42:11;15.60;46.20
67870;DHT22;54673;52.262;6.830;2022-11-20T00:44:37;15.70;46.20
67870;DHT22;54673;52.262;6.830;2022-11-20T00:47:03;15.70;46.10
67870;DHT22;54673;52.262;6.830;2022-11-20T00:49:28;15.60;46.10
67870;DHT22;54673;52.262;6.830;2022-11-20T00:51:54;15.60;46.10
67870;DHT22;54673;52.262;6.830;2022-11-20T00:54:19;15.40;46.00
67870;DHT22;54673;52.262;6.830;2022-11-20T00:56:45;15.50;46.10
67870;DHT22;54673;52.262;6.830;2022-11-20T00:59:10;15.70;46.30
67870;DHT22;54673;52.262;6.830;2022-11-20T01:01:37;15.50;46.20
67870;DHT22;54673;52.262;6.830;2022-11-20T01:04:03;15.80;46.50
67870;DHT22;54673;52.262;6.830;2022-11-20T01:06:32;15.50;46.20
67870;DHT22;54673;52.262;6.830;2022-11-20T01:09:00;15.40;46.50
67870;DHT22;54673;52.262;6.830;2022-11-20T01:11:28;15.40;46.60
67870;DHT22;54673;52.262;6.830;2022-11-20T01:13:56;15.40;46.80
67870;DHT22;54673;52.262;6.830;2022-11-20T01:18:51;15.50;46.90
67870;DHT22;54673;52.262;6.830;2022-11-20T01:21:22;15.90;47.20
67870;DHT22;54673;52.262;6.830;2022-11-20T01:23:49;15.70;47.40
67870;DHT22;54673;52.262;6.830;2022-11-20T01:26:17;15.40;46.90
67870;DHT22;54673;52.262;6.830;2022-11-20T01:28:44;15.30;47.00
67870;DHT22;54673;52.262;6.830;2022-11-20T01:31:15;15.40;46.80
67870;DHT22;54673;52.262;6.830;2022-11-20T01:33:42;15.80;47.50
67870;DHT22;54673;52.262;6.830;2022-11-20T01:36:09;15.60;47.00
67870;DHT22;54673;52.262;6.830;2022-11-20T01:38:34;15.40;47.00
67870;DHT22;54673;52.262;6.830;2022-11-20T01:41:00;15.20;46.80
67870;DHT22;54673;52.262;6.830;2022-11-20T01:43:26;15.30;46.90
67870;DHT22;54673;52.262;6.830;2022-11-20T01:46:18;15.40;47.00
67870;DHT22;54673;52.262;6.830;2022-11-20T01:51:37;15.20;47.70
67870;DHT22;54673;52.262;6.830;2022-11-20T01:54:06;15.20;46.90
67870;DHT22;54673;52.262;6.830;2022-11-20T01:56:36;15.30;47.40
67870;DHT22;54673;52.262;6.830;2022-11-20T01:59:05;15.50;47.50
67870;DHT22;54673;52.262;6.830;2022-11-20T02:01:31;15.10;47.30
67870;DHT22;54673;52.262;6.830;2022-11-20T02:03:58;15.60;47.20
67870;DHT22;54673;52.262;6.830;2022-11-20T02:06:30;15.50;47.40
67870;DHT22;54673;52.262;6.830;2022-11-20T02:08:57;15.30;47.50
67870;DHT22;54673;52.262;6.830;2022-11-20T02:11:22;15.10;46.90
67870;DHT22;54673;52.262;6.830;2022-11-20T02:13:48;15.10;46.90
67870;DHT22;54673;52.262;6.830;2022-11-20T02:16:22;15.00;46.90
67870;DHT22;54673;52.262;6.830;2022-11-20T02:18:49;15.30;47.70
67870;DHT22;54673;52.262;6.830;2022-11-20T02:26:31;15.10;47.50
67870;DHT22;54673;52.262;6.830;2022-11-20T02:28:59;15.20;47.10
67870;DHT22;54673;52.262;6.830;2022-11-20T02:31:26;15.10;47.10
67870;DHT22;54673;52.262;6.830;2022-11-20T02:33:58;14.90;46.90
67870;DHT22;54673;52.262;6.830;2022-11-20T02:36:26;15.00;46.90
67870;DHT22;54673;52.262;6.830;2022-11-20T02:38:52;15.10;47.40
67870;DHT22;54673;52.262;6.830;2022-11-20T02:41:18;15.10;46.90
67870;DHT22;54673;52.262;6.830;2022-11-20T02:43:44;15.10;46.90
67870;DHT22;54673;52.262;6.830;2022-11-20T02:46:09;14.90;46.90
67870;DHT22;54673;52.262;6.830;2022-11-20T02:48:35;15.10;47.00
67870;DHT22;54673;52.262;6.830;2022-11-20T02:51:01;15.00;47.00
67870;DHT22;54673;52.262;6.830;2022-11-20T02:53:26;15.20;47.00
67870;DHT22;54673;52.262;6.830;2022-11-20T02:55:52;15.10;47.00
67870;DHT22;54673;52.262;6.830;2022-11-20T02:58:17;15.00;46.90
67870;DHT22;54673;52.262;6.830;2022-11-20T03:00:43;15.00;46.90
67870;DHT22;54673;52.262;6.830;2022-11-20T03:03:09;14.80;46.80
67870;DHT22;54673;52.262;6.830;2022-11-20T03:05:34;15.20;47.00
67870;DHT22;54673;52.262;6.830;2022-11-20T03:08:00;14.90;46.80
67870;DHT22;54673;52.262;6.830;2022-11-20T03:10:26;14.80;46.80
67870;DHT22;54673;52.262;6.830;2022-11-20T03:12:55;15.00;46.90
67870;DHT22;54673;52.262;6.830;2022-11-20T03:15:22;14.80;47.50
67870;DHT22;54673;52.262;6.830;2022-11-20T03:17:47;14.70;46.90
67870;DHT22;54673;52.262;6.830;2022-11-20T03:20:13;14.80;46.90
67870;DHT22;54673;52.262;6.830;2022-11-20T03:22:39;14.80;46.80
67870;DHT22;54673;52.262;6.830;2022-11-20T03:25:05;14.60;46.70
67870;DHT22;54673;52.262;6.830;2022-11-20T03:27:34;14.80;46.90
67870;DHT22;54673;52.262;6.830;2022-11-20T03:30:00;15.10;47.70
67870;DHT22;54673;52.262;6.830;2022-11-20T03:32:26;14.70;46.70
67870;DHT22;54673;52.262;6.830;2022-11-20T03:34:51;14.80;47.60
67870;DHT22;54673;52.262;6.830;2022-11-20T03:37:17;14.70;46.70
67870;DHT22;54673;52.262;6.830;2022-11-20T03:39:42;14.70;46.70
67870;DHT22;54673;52.262;6.830;2022-11-20T03:42:08;14.60;46.60
67870;DHT22;54673;52.262;6.830;2022-11-20T03:44:54;14.80;47.00
67870;DHT22;54673;52.262;6.830;2022-11-20T03:47:20;14.70;47.60
67870;DHT22;54673;52.262;6.830;2022-11-20T03:49:45;14.70;46.70
67870;DHT22;54673;52.262;6.830;2022-11-20T03:52:11;14.80;46.80
67870;DHT22;54673;52.262;6.830;2022-11-20T03:54:36;14.90;46.80
67870;DHT22;54673;52.262;6.830;2022-11-20T03:57:02;14.50;46.70
67870;DHT22;54673;52.262;6.830;2022-11-20T03:59:27;14.70;46.70
67870;DHT22;54673;52.262;6.830;2022-11-20T04:01:53;14.50;46.50
67870;DHT22;54673;52.262;6.830;2022-11-20T04:04:18;14.50;46.50
67870;DHT22;54673;52.262;6.830;2022-11-20T04:06:44;14.60;47.50
67870;DHT22;54673;52.262;6.830;2022-11-20T04:09:09;14.50;46.50
67870;DHT22;54673;52.262;6.830;2022-11-20T04:11:37;14.40;46.40
67870;DHT22;54673;52.262;6.830;2022-11-20T04:14:06;14.80;47.10
67870;DHT22;54673;52.262;6.830;2022-11-20T04:16:34;14.50;46.80
67870;DHT22;54673;52.262;6.830;2022-11-20T04:19:01;14.50;47.10
67870;DHT22;54673;52.262;6.830;2022-11-20T04:21:27;14.80;47.10
67870;DHT22;54673;52.262;6.830;2022-11-20T04:23:53;14.60;46.50
67870;DHT22;54673;52.262;6.830;2022-11-20T04:26:21;14.50;46.60
67870;DHT22;54673;52.262;6.830;2022-11-20T04:28:46;14.90;47.10
67870;DHT22;54673;52.262;6.830;2022-11-20T04:31:15;14.60;46.50
67870;DHT22;54673;52.262;6.830;2022-11-20T04:33:40;14.30;47.00
67870;DHT22;54673;52.262;6.830;2022-11-20T04:36:11;14.30;46.30
67870;DHT22;54673;52.262;6.830;2022-11-20T04:38:38;14.50;46.40
67870;DHT22;54673;52.262;6.830;2022-11-20T04:41:05;14.40;46.60
67870;DHT22;54673;52.262;6.830;2022-11-20T04:43:32;14.30;46.70
67870;DHT22;54673;52.262;6.830;2022-11-20T04:45:59;14.40;46.60
67870;DHT22;54673;52.262;6.830;2022-11-20T04:48:26;14.40;46.70
67870;DHT22;54673;52.262;6.830;2022-11-20T04:50:52;14.40;46.80
67870;DHT22;54673;52.262;6.830;2022-11-20T04:53:19;14.50;46.70
67870;DHT22;54673;52.262;6.830;2022-11-20T04:55:45;14.40;46.80
67870;DHT22;54673;52.262;6.830;2022-11-20T04:58:11;14.40;46.40
67870;DHT22;54673;52.262;6.830;2022-11-20T05:00:37;14.30;46.30
67870;DHT22;54673;52.262;6.830;2022-11-20T05:03:02;14.30;46.30
67870;DHT22;54673;52.262;6.830;2022-11-20T05:05:28;13.90;45.80
67870;DHT22;54673;52.262;6.830;2022-11-20T05:07:56;14.30;47.10
67870;DHT22;54673;52.262;6.830;2022-11-20T05:10:23;14.40;47.00
67870;DHT22;54673;52.262;6.830;2022-11-20T05:12:49;14.50;46.20
67870;DHT22;54673;52.262;6.830;2022-11-20T05:15:14;14.30;46.20
67870;DHT22;54673;52.262;6.830;2022-11-20T05:17:40;14.30;46.20
67870;DHT22;54673;52.262;6.830;2022-11-20T05:20:06;14.40;46.20
67870;DHT22;54673;52.262;6.830;2022-11-20T05:22:32;14.30;46.10
67870;DHT22;54673;52.262;6.830;2022-11-20T05:24:57;14.20;46.20
67870;DHT22;54673;52.262;6.830;2022-11-20T05:27:23;14.20;46.00
67870;DHT22;54673;52.262;6.830;2022-11-20T05:29:48;14.10;46.00
67870;DHT22;54673;52.262;6.830;2022-11-20T05:32:14;14.20;46.00
67870;DHT22;54673;52.262;6.830;2022-11-20T05:34:39;14.20;46.20
67870;DHT22;54673;52.262;6.830;2022-11-20T05:37:05;14.20;46.00
67870;DHT22;54673;52.262;6.830;2022-11-20T05:39:30;14.00;46.20
67870;DHT22;54673;52.262;6.830;2022-11-20T05:41:56;14.00;46.30
67870;DHT22;54673;52.262;6.830;2022-11-20T05:44:40;14.00;45.80
67870;DHT22;54673;52.262;6.830;2022-11-20T05:47:06;14.40;46.60
67870;DHT22;54673;52.262;6.830;2022-11-20T05:49:31;14.00;46.40
67870;DHT22;54673;52.262;6.830;2022-11-20T05:51:57;14.30;46.60
67870;DHT22;54673;52.262;6.830;2022-11-20T05:54:23;14.20;46.30
67870;DHT22;54673;52.262;6.830;2022-11-20T05:56:48;14.20;46.20
67870;DHT22;54673;52.262;6.830;2022-11-20T05:59:14;14.30;46.10
67870;DHT22;54673;52.262;6.830;2022-11-20T06:01:39;14.30;46.10
67870;DHT22;54673;52.262;6.830;2022-11-20T06:04:05;14.30;46.20
67870;DHT22;54673;52.262;6.830;2022-11-20T06:06:30;14.20;46.10
67870;DHT22;54673;52.262;6.830;2022-11-20T06:08:56;14.20;46.00
67870;DHT22;54673;52.262;6.830;2022-11-20T06:11:24;14.30;46.10
67870;DHT22;54673;52.262;6.830;2022-11-20T06:13:50;14.40;46.40
67870;DHT22;54673;52.262;6.830;2022-11-20T06:16:18;14.30;46.20
67870;DHT22;54673;52.262;6.830;2022-11-20T06:18:44;14.20;46.70
67870;DHT22;54673;52.262;6.830;2022-11-20T06:21:11;14.40;46.10
67870;DHT22;54673;52.262;6.830;2022-11-20T06:23:37;14.20;45.80
67870;DHT22;54673;52.262;6.830;2022-11-20T06:26:05;14.40;46.00
67870;DHT22;54673;52.262;6.830;2022-11-20T06:28:31;14.30;46.30
67870;DHT22;54673;52.262;6.830;2022-11-20T06:30:57;14.50;46.20
67870;DHT22;54673;52.262;6.830;2022-11-20T06:33:22;14.30;46.00
67870;DHT22;54673;52.262;6.830;2022-11-20T06:35:48;14.40;46.10
67870;DHT22;54673;52.262;6.830;2022-11-20T06:38:14;14.40;45.90
67870;DHT22;54673;52.262;6.830;2022-11-20T06:40:41;14.20;45.90
67870;DHT22;54673;52.262;6.830;2022-11-20T06:43:07;14.40;46.70
67870;DHT22;54673;52.262;6.830;2022-11-20T06:45:32;14.50;46.20
67870;DHT22;54673;52.262;6.830;2022-11-20T06:47:58;14.40;45.90
67870;DHT22;54673;52.262;6.830;2022-11-20T06:50:24;14.30;46.00
67870;DHT22;54673;52.262;6.830;2022-11-20T06:52:49;14.20;45.70
67870;DHT22;54673;52.262;6.830;2022-11-20T06:55:15;14.30;45.90
67870;DHT22;54673;52.262;6.830;2022-11-20T06:57:41;14.30;46.00
67870;DHT22;54673;52.262;6.830;2022-11-20T07:00:06;14.40;46.70
67870;DHT22;54673;52.262;6.830;2022-11-20T07:02:32;14.30;45.80
67870;DHT22;54673;52.262;6.830;2022-11-20T07:04:58;14.10;45.80
67870;DHT22;54673;52.262;6.830;2022-11-20T07:07:23;14.30;45.90
67870;DHT22;54673;52.262;6.830;2022-11-20T07:09:49;14.20;45.90
67870;DHT22;54673;52.262;6.830;2022-11-20T07:12:14;14.10;45.80
67870;DHT22;54673;52.262;6.830;2022-11-20T07:14:40;14.10;45.70
67870;DHT22;54673;52.262;6.830;2022-11-20T07:17:05;14.30;45.90
67870;DHT22;54673;52.262;6.830;2022-11-20T07:19:31;14.20;45.80
67870;DHT22;54673;52.262;6.830;2022-11-20T07:21:57;14.20;45.80
67870;DHT22;54673;52.262;6.830;2022-11-20T07:24:22;14.70;46.00
67870;DHT22;54673;52.262;6.830;2022-11-20T07:26:48;14.40;45.80
67870;DHT22;54673;52.262;6.830;2022-11-20T07:29:15;14.30;45.70
67870;DHT22;54673;52.262;6.830;2022-11-20T07:31:42;14.50;46.10
67870;DHT22;54673;52.262;6.830;2022-11-20T07:34:08;14.40;45.90
67870;DHT22;54673;52.262;6.830;2022-11-20T07:36:33;14.20;45.70
67870;DHT22;54673;52.262;6.830;2022-11-20T07:38:59;14.30;45.70
67870;DHT22;54673;52.262;6.830;2022-11-20T07:41:25;14.20;45.70
67870;DHT22;54673;52.262;6.830;2022-11-20T07:43:50;14.30;45.70
67870;DHT22;54673;52.262;6.830;2022-11-20T07:46:16;14.30;45.70
67870;DHT22;54673;52.262;6.830;2022-11-20T07:48:41;14.30;45.70
67870;DHT22;54673;52.262;6.830;2022-11-20T07:51:07;14.10;45.60
67870;DHT22;54673;52.262;6.830;2022-11-20T07:53:32;14.20;45.80
67870;DHT22;54673;52.262;6.830;2022-11-20T07:56:02;14.20;45.30
67870;DHT22;54673;52.262;6.830;2022-11-20T07:58:32;14.10;46.70
67870;DHT22;54673;52.262;6.830;2022-11-20T08:01:04;14.50;47.00
67870;DHT22;54673;52.262;6.830;2022-11-20T08:03:30;14.30;47.00
67870;DHT22;54673;52.262;6.830;2022-11-20T08:05:59;14.20;45.70
67870;DHT22;54673;52.262;6.830;2022-11-20T08:08:26;14.30;46.70
67870;DHT22;54673;52.262;6.830;2022-11-20T08:10:52;14.50;45.90
67870;DHT22;54673;52.262;6.830;2022-11-20T08:13:17;14.10;45.90
67870;DHT22;54673;52.262;6.830;2022-11-20T08:16:01;14.30;45.40
67870;DHT22;54673;52.262;6.830;2022-11-20T08:18:27;14.30;46.00
67870;DHT22;54673;52.262;6.830;2022-11-20T08:20:53;14.70;46.10
67870;DHT22;54673;52.262;6.830;2022-11-20T08:23:18;14.00;45.80
67870;DHT22;54673;52.262;6.830;2022-11-20T08:25:49;14.20;45.80
67870;DHT22;54673;52.262;6.830;2022-11-20T08:28:15;14.30;47.10
67870;DHT22;54673;52.262;6.830;2022-11-20T08:30:40;14.30;46.10
67870;DHT22;54673;52.262;6.830;2022-11-20T08:33:08;14.50;46.20
67870;DHT22;54673;52.262;6.830;2022-11-20T08:35:35;14.20;46.90
67870;DHT22;54673;52.262;6.830;2022-11-20T08:38:02;14.50;46.80
67870;DHT22;54673;52.262;6.830;2022-11-20T08:40:27;14.30;46.70
67870;DHT22;54673;52.262;6.830;2022-11-20T08:42:53;14.40;46.60
67870;DHT22;54673;52.262;6.830;2022-11-20T08:45:19;14.30;46.50
67870;DHT22;54673;52.262;6.830;2022-11-20T08:47:45;14.70;46.90
67870;DHT22;54673;52.262;6.830;2022-11-20T08:50:12;14.70;46.90
67870;DHT22;54673;52.262;6.830;2022-11-20T08:52:38;14.70;47.10
67870;DHT22;54673;52.262;6.830;2022-11-20T08:55:05;15.00;46.90
67870;DHT22;54673;52.262;6.830;2022-11-20T08:57:34;14.90;46.90
67870;DHT22;54673;52.262;6.830;2022-11-20T09:00:01;15.30;47.50
67870;DHT22;54673;52.262;6.830;2022-11-20T09:02:26;15.10;46.60
67870;DHT22;54673;52.262;6.830;2022-11-20T09:04:52;15.20;46.60
67870;DHT22;54673;52.262;6.830;2022-11-20T09:07:19;15.20;46.40
67870;DHT22;54673;52.262;6.830;2022-11-20T09:09:44;15.60;46.50
67870;DHT22;54673;52.262;6.830;2022-11-20T09:12:10;15.30;46.30
67870;DHT22;54673;52.262;6.830;2022-11-20T09:14:36;15.30;46.10
67870;DHT22;54673;52.262;6.830;2022-11-20T09:17:01;15.50;46.20
67870;DHT22;54673;52.262;6.830;2022-11-20T09:19:27;15.50;46.00
67870;DHT22;54673;52.262;6.830;2022-11-20T09:21:53;15.20;45.90
67870;DHT22;54673;52.262;6.830;2022-11-20T09:24:19;15.40;45.90
67870;DHT22;54673;52.262;6.830;2022-11-20T09:26:46;15.40;45.90
67870;DHT22;54673;52.262;6.830;2022-11-20T09:29:12;15.40;45.90
67870;DHT22;54673;52.262;6.830;2022-11-20T09:31:37;15.30;45.80
67870;DHT22;54673;52.262;6.830;2022-11-20T09:34:03;15.50;45.80
67870;DHT22;54673;52.262;6.830;2022-11-20T09:36:29;15.70;46.00
67870;DHT22;54673;52.262;6.830;2022-11-20T09:38:54;16.20;46.00
67870;DHT22;54673;52.262;6.830;2022-11-20T09:50:36;15.40;47.70
67870;DHT22;54673;52.262;6.830;2022-11-20T09:55:45;15.70;46.80
67870;DHT22;54673;52.262;6.830;2022-11-20T09:58:19;15.70;46.90
67870;DHT22;54673;52.262;6.830;2022-11-20T10:00:51;15.90;47.20
67870;DHT22;54673;52.262;6.830;2022-11-20T10:04:24;15.90;47.20
67870;DHT22;54673;52.262;6.830;2022-11-20T10:06:24;16.00;46.90
67870;DHT22;54673;52.262;6.830;2022-11-20T10:09:01;16.10;47.20
67870;DHT22;54673;52.262;6.830;2022-11-20T10:12:21;16.10;47.00
67870;DHT22;54673;52.262;6.830;2022-11-20T10:17:26;16.30;47.20
67870;DHT22;54673;52.262;6.830;2022-11-20T10:23:14;16.40;46.70
67870;DHT22;54673;52.262;6.830;2022-11-20T10:33:51;16.70;46.30
67870;DHT22;54673;52.262;6.830;2022-11-20T10:36:28;16.70;45.90
67870;DHT22;54673;52.262;6.830;2022-11-20T10:39:14;17.00;46.10
67870;DHT22;54673;52.262;6.830;2022-11-20T10:41:42;16.90;45.50
67870;DHT22;54673;52.262;6.830;2022-11-20T10:44:15;17.10;45.60
67870;DHT22;54673;52.262;6.830;2022-11-20T10:47:00;17.10;45.80
67870;DHT22;54673;52.262;6.830;2022-11-20T10:49:26;17.10;45.40
67870;DHT22;54673;52.262;6.830;2022-11-20T10:54:36;17.20;45.40
67870;DHT22;54673;52.262;6.830;2022-11-20T11:00:01;17.40;45.40
67870;DHT22;54673;52.262;6.830;2022-11-20T11:02:51;17.50;45.60
67870;DHT22;54673;52.262;6.830;2022-11-20T11:05:22;17.50;45.50
67870;DHT22;54673;52.262;6.830;2022-11-20T11:07:54;17.60;45.60
67870;DHT22;54673;52.262;6.830;2022-11-20T11:12:48;17.90;45.50
67870;DHT22;54673;52.262;6.830;2022-11-20T11:15:29;17.80;45.20
67870;DHT22;54673;52.262;6.830;2022-11-20T11:17:55;18.00;45.40
67870;DHT22;54673;52.262;6.830;2022-11-20T11:20:24;18.10;45.10
67870;DHT22;54673;52.262;6.830;2022-11-20T11:22:55;18.30;45.20
67870;DHT22;54673;52.262;6.830;2022-11-20T11:27:52;18.40;44.90
67870;DHT22;54673;52.262;6.830;2022-11-20T11:30:20;18.50;45.00
67870;DHT22;54673;52.262;6.830;2022-11-20T11:32:46;18.50;44.80
67870;DHT22;54673;52.262;6.830;2022-11-20T11:35:29;18.60;44.70
67870;DHT22;54673;52.262;6.830;2022-11-20T11:38:06;18.70;44.80
67870;DHT22;54673;52.262;6.830;2022-11-20T11:40:35;18.60;44.50
67870;DHT22;54673;52.262;6.830;2022-11-20T11:43:05;19.00;44.80
67870;DHT22;54673;52.262;6.830;2022-11-20T11:45:54;18.80;44.70
67870;DHT22;54673;52.262;6.830;2022-11-20T11:48:21;18.80;44.60
67870;DHT22;54673;52.262;6.830;2022-11-20T11:50:50;19.10;44.60
67870;DHT22;54673;52.262;6.830;2022-11-20T11:53:19;19.30;44.70
67870;DHT22;54673;52.262;6.830;2022-11-20T11:55:50;20.10;45.00
67870;DHT22;54673;52.262;6.830;2022-11-20T11:58:46;19.10;44.30
67870;DHT22;54673;52.262;6.830;2022-11-20T12:01:41;19.20;44.40
67870;DHT22;54673;52.262;6.830;2022-11-20T12:04:17;19.20;44.30
67870;DHT22;54673;52.262;6.830;2022-11-20T12:06:49;19.30;44.50
67870;DHT22;54673;52.262;6.830;2022-11-20T12:09:16;19.30;44.40
67870;DHT22;54673;52.262;6.830;2022-11-20T12:12:05;19.40;44.30
67870;DHT22;54673;52.262;6.830;2022-11-20T12:17:01;19.80;44.70
67870;DHT22;54673;52.262;6.830;2022-11-20T12:19:29;19.40;44.40
67870;DHT22;54673;52.262;6.830;2022-11-20T12:22:09;19.70;44.50
67870;DHT22;54673;52.262;6.830;2022-11-20T12:25:04;19.40;44.10
67870;DHT22;54673;52.262;6.830;2022-11-20T12:27:57;19.40;44.00
67870;DHT22;54673;52.262;6.830;2022-11-20T12:30:25;19.50;43.80
67870;DHT22;54673;52.262;6.830;2022-11-20T12:35:44;19.30;43.50
67870;DHT22;54673;52.262;6.830;2022-11-20T12:38:39;19.30;44.00
67870;DHT22;54673;52.262;6.830;2022-11-20T12:47:46;19.10;44.00
67870;DHT22;54673;52.262;6.830;2022-11-20T12:50:22;19.00;44.00
67870;DHT22;54673;52.262;6.830;2022-11-20T12:55:36;18.90;44.10
67870;DHT22;54673;52.262;6.830;2022-11-20T13:01:03;18.80;44.80
67870;DHT22;54673;52.262;6.830;2022-11-20T13:03:38;18.90;46.40
67870;DHT22;54673;52.262;6.830;2022-11-20T13:06:13;18.90;45.40
67870;DHT22;54673;52.262;6.830;2022-11-20T13:08:42;18.90;45.40
67870;DHT22;54673;52.262;6.830;2022-11-20T13:11:27;18.90;45.40
67870;DHT22;54673;52.262;6.830;2022-11-20T13:14:40;19.00;45.70
67870;DHT22;54673;52.262;6.830;2022-11-20T13:19:36;19.10;45.20
67870;DHT22;54673;52.262;6.830;2022-11-20T13:22:02;19.20;45.40
67870;DHT22;54673;52.262;6.830;2022-11-20T13:24:30;19.30;45.40
67870;DHT22;54673;52.262;6.830;2022-11-20T13:29:35;19.20;45.90
67870;DHT22;54673;52.262;6.830;2022-11-20T13:32:14;19.40;45.70
67870;DHT22;54673;52.262;6.830;2022-11-20T13:34:58;19.60;46.20
67870;DHT22;54673;52.262;6.830;2022-11-20T13:37:34;19.40;46.30
67870;DHT22;54673;52.262;6.830;2022-11-20T13:42:39;19.50;46.10
67870;DHT22;54673;52.262;6.830;2022-11-20T13:45:21;19.50;45.90
67870;DHT22;54673;52.262;6.830;2022-11-20T13:47:49;19.90;45.90
67870;DHT22;54673;52.262;6.830;2022-11-20T13:50:15;19.50;45.60
67870;DHT22;54673;52.262;6.830;2022-11-20T13:52:58;19.60;45.30
67870;DHT22;54673;52.262;6.830;2022-11-20T14:01:21;19.70;45.30
67870;DHT22;54673;52.262;6.830;2022-11-20T14:03:48;19.70;46.00
67870;DHT22;54673;52.262;6.830;2022-11-20T14:06:27;19.70;45.40
67870;DHT22;54673;52.262;6.830;2022-11-20T14:08:54;19.70;45.40
67870;DHT22;54673;52.262;6.830;2022-11-20T14:11:22;19.70;45.40
67870;DHT22;54673;52.262;6.830;2022-11-20T14:14:46;19.80;45.70
67870;DHT22;54673;52.262;6.830;2022-11-20T14:16:50;19.80;45.40
67870;DHT22;54673;52.262;6.830;2022-11-20T14:21:48;19.90;46.10
67870;DHT22;54673;52.262;6.830;2022-11-20T14:24:18;19.90;44.30
67870;DHT22;54673;52.262;6.830;2022-11-20T14:26:44;19.90;41.60
67870;DHT22;54673;52.262;6.830;2022-11-20T14:29:34;19.70;40.70
67870;DHT22;54673;52.262;6.830;2022-11-20T14:32:01;19.30;36.30
67870;DHT22;54673;52.262;6.830;2022-11-20T14:34:32;19.20;35.80
67870;DHT22;54673;52.262;6.830;2022-11-20T14:37:01;18.40;39.90
67870;DHT22;54673;52.262;6.830;2022-11-20T14:39:35;18.60;41.00
67870;DHT22;54673;52.262;6.830;2022-11-20T14:42:02;18.60;41.80
67870;DHT22;54673;52.262;6.830;2022-11-20T14:44:33;18.70;40.30
67870;DHT22;54673;52.262;6.830;2022-11-20T14:47:00;19.00;41.30
67870;DHT22;54673;52.262;6.830;2022-11-20T14:49:29;19.00;40.90
67870;DHT22;54673;52.262;6.830;2022-11-20T14:52:02;18.80;41.20
67870;DHT22;54673;52.262;6.830;2022-11-20T14:54:29;18.80;41.90
67870;DHT22;54673;52.262;6.830;2022-11-20T14:56:56;18.70;41.20
67870;DHT22;54673;52.262;6.830;2022-11-20T14:59:24;18.80;41.70
67870;DHT22;54673;52.262;6.830;2022-11-20T15:01:58;18.30;42.70
67870;DHT22;54673;52.262;6.830;2022-11-20T15:04:25;18.80;44.00
67870;DHT22;54673;52.262;6.830;2022-11-20T15:07:00;18.50;44.00
67870;DHT22;54673;52.262;6.830;2022-11-20T15:09:26;18.50;43.70
67870;DHT22;54673;52.262;6.830;2022-11-20T15:11:58;18.40;44.50
67870;DHT22;54673;52.262;6.830;2022-11-20T15:14:25;18.40;45.50
67870;DHT22;54673;52.262;6.830;2022-11-20T15:16:52;18.30;45.60
67870;DHT22;54673;52.262;6.830;2022-11-20T15:19:23;18.60;45.60
67870;DHT22;54673;52.262;6.830;2022-11-20T15:21:49;18.30;46.50
67870;DHT22;54673;52.262;6.830;2022-11-20T15:24:15;18.50;45.60
67870;DHT22;54673;52.262;6.830;2022-11-20T15:26:41;18.00;45.70
67870;DHT22;54673;52.262;6.830;2022-11-20T15:29:12;18.10;46.80
67870;DHT22;54673;52.262;6.830;2022-11-20T15:31:39;18.40;49.20
67870;DHT22;54673;52.262;6.830;2022-11-20T15:34:15;18.00;50.40
67870;DHT22;54673;52.262;6.830;2022-11-20T15:36:41;17.90;52.30
67870;DHT22;54673;52.262;6.830;2022-11-20T15:39:08;17.90;52.40
67870;DHT22;54673;52.262;6.830;2022-11-20T15:41:35;18.10;51.80
67870;DHT22;54673;52.262;6.830;2022-11-20T15:44:00;18.00;53.10
67870;DHT22;54673;52.262;6.830;2022-11-20T15:46:29;17.70;52.50
67870;DHT22;54673;52.262;6.830;2022-11-20T15:48:55;17.70;54.00
67870;DHT22;54673;52.262;6.830;2022-11-20T15:53:57;17.60;54.50
67870;DHT22;54673;52.262;6.830;2022-11-20T15:56:24;17.90;54.80
67870;DHT22;54673;52.262;6.830;2022-11-20T15:58:49;17.40;55.10
67870;DHT22;54673;52.262;6.830;2022-11-20T16:01:17;17.80;53.60
67870;DHT22;54673;52.262;6.830;2022-11-20T16:03:44;17.70;53.10
67870;DHT22;54673;52.262;6.830;2022-11-20T16:06:10;17.60;52.50
67870;DHT22;54673;52.262;6.830;2022-11-20T16:08:35;17.50;51.70
67870;DHT22;54673;52.262;6.830;2022-11-20T16:11:01;17.50;51.40
67870;DHT22;54673;52.262;6.830;2022-11-20T16:13:27;17.20;52.70
67870;DHT22;54673;52.262;6.830;2022-11-20T16:16:34;17.40;51.30
67870;DHT22;54673;52.262;6.830;2022-11-20T16:19:01;17.30;52.90
67870;DHT22;54673;52.262;6.830;2022-11-20T16:21:27;17.40;52.10
67870;DHT22;54673;52.262;6.830;2022-11-20T16:24:04;17.40;52.10
67870;DHT22;54673;52.262;6.830;2022-11-20T16:26:31;17.00;51.90
67870;DHT22;54673;52.262;6.830;2022-11-20T16:28:59;17.20;52.50
67870;DHT22;54673;52.262;6.830;2022-11-20T16:31:25;17.20;52.40
67870;DHT22;54673;52.262;6.830;2022-11-20T16:33:51;17.00;51.50
67870;DHT22;54673;52.262;6.830;2022-11-20T16:36:19;17.20;52.50
67870;DHT22;54673;52.262;6.830;2022-11-20T16:38:45;16.80;52.40
67870;DHT22;54673;52.262;6.830;2022-11-20T16:41:10;17.00;52.00
67870;DHT22;54673;52.262;6.830;2022-11-20T16:43:49;16.80;50.70
67870;DHT22;54673;52.262;6.830;2022-11-20T16:46:17;16.80;52.30
67870;DHT22;54673;52.262;6.830;2022-11-20T16:48:43;17.10;52.80
67870;DHT22;54673;52.262;6.830;2022-11-20T16:51:10;16.70;52.10
67870;DHT22;54673;52.262;6.830;2022-11-20T16:53:36;17.00;52.90
67870;DHT22;54673;52.262;6.830;2022-11-20T16:56:16;16.70;52.60
67870;DHT22;54673;52.262;6.830;2022-11-20T16:58:43;16.70;52.30
67870;DHT22;54673;52.262;6.830;2022-11-20T17:01:11;16.80;52.00
67870;DHT22;54673;52.262;6.830;2022-11-20T17:03:37;16.90;51.80